PWSweather.com
Personal Weather Stations
Station Observations
REBOX73
Petalia At Mount Pantokrator, CorfuGR 49081

Petalia At Mount PantokratorCorfuGR 49081

Lat: 39.747915, Lon: 19.841466

Elevation: 2132

Station Type: ws1080

http://pantokratoras-kerkyra.meteoclub.gr/

Latest ConditionsUpdated 4:15:00 PM GMT+01:01 Thursday, Jul 31, 2014
Currently Today's Max Today's Min Today's Average
Temperature 72.3°F22.4°C 78.8°F26.0°C 63.0°F17.2°C 69.3°F20.7°C
Dew Point 60.8°F16.0°C 71.8°F22.1°C 59.4°F15.2°C 64.9°F18.3°C
Winds 4.9 mph SE7.9 kmh SE 8.4 mph NW13.5 kmh NW - 3.6 mph 5.8 kmh
Wind Gusts 10.7 mph17.2 kmh 14.5 mph23.3 kmh - -
Humidity 67% 100% 60% 87%
Pressure 29.77 in1008.1 mb 29.80 in1009.1 mb 29.75 in1007.5 mb -
Precipitation - 1.30 in33.0 mm - -
Hour Temp Dew Point Humidity Winds Wind Gusts Pressure Precip Precip Rate Daily Precip Total
04:15 PM 72.3°F22.4°C 60.8°F16.0°C 67% 4.9 mph SE7.9 kmh SE 10.7 mph17.2 kmh 29.77 in1008.1 mb 0.00 in0.0 mm 0.00 in/hr0.0 mm/hr 1.30 in33.0 mm
04:00 PM 73.4°F23.0°C 59.6°F15.3°C 62% 4.3 mph ESE6.9 kmh ESE 7.6 mph12.2 kmh 29.78 in1008.5 mb 0.00 in0.0 mm 0.00 in/hr0.0 mm/hr 1.30 in33.0 mm
03:45 PM 72.3°F22.4°C 59.5°F15.3°C 64% 4.1 mph SSE6.6 kmh SSE 6.9 mph11.1 kmh 29.78 in1008.5 mb 0.00 in0.0 mm 0.00 in/hr0.0 mm/hr 1.30 in33.0 mm
03:30 PM 74.1°F23.4°C 59.4°F15.2°C 60% 5.1 mph ESE8.2 kmh ESE 9.2 mph14.8 kmh 29.78 in1008.5 mb 0.00 in0.0 mm 0.00 in/hr0.0 mm/hr 1.30 in33.0 mm
03:15 PM 73.6°F23.1°C 59.8°F15.4°C 62% 4.2 mph SE6.8 kmh SE 6.0 mph9.7 kmh 29.79 in1008.8 mb 0.00 in0.0 mm 0.00 in/hr0.0 mm/hr 1.30 in33.0 mm
03:00 PM 75.7°F24.3°C 63.2°F17.3°C 65% 5.8 mph NE9.3 kmh NE 9.2 mph14.8 kmh 29.79 in1008.8 mb 0.00 in0.0 mm 0.00 in/hr0.0 mm/hr 1.30 in33.0 mm
02:45 PM 72.3°F22.4°C 64.0°F17.8°C 75% 5.1 mph SSW8.2 kmh SSW 7.6 mph12.2 kmh 29.79 in1008.8 mb 0.00 in0.0 mm 0.00 in/hr0.0 mm/hr 1.30 in33.0 mm
02:30 PM 68.9°F20.5°C 63.6°F17.6°C 83% 5.9 mph SW9.5 kmh SW 9.8 mph15.8 kmh 29.79 in1008.8 mb 0.00 in0.0 mm 0.00 in/hr0.0 mm/hr 1.30 in33.0 mm
02:15 PM 71.4°F21.9°C 63.9°F17.7°C 77% 7.4 mph S11.9 kmh S 13.6 mph21.9 kmh 29.78 in1008.5 mb 0.00 in0.0 mm 0.00 in/hr0.0 mm/hr 1.30 in33.0 mm
02:00 PM 73.0°F22.8°C 66.2°F19.0°C 79% 5.1 mph SSE8.2 kmh SSE 8.3 mph13.4 kmh 29.78 in1008.5 mb 0.00 in0.0 mm 0.00 in/hr0.0 mm/hr 1.30 in33.0 mm
01:45 PM 71.4°F21.9°C 66.0°F18.9°C 83% 4.9 mph SW7.9 kmh SW 7.6 mph12.2 kmh 29.79 in1008.8 mb 0.00 in0.0 mm 0.00 in/hr0.0 mm/hr 1.30 in33.0 mm
01:30 PM 66.9°F19.4°C 61.3°F16.3°C 82% 5.8 mph S9.3 kmh S 9.8 mph15.8 kmh 29.78 in1008.5 mb 0.00 in0.0 mm 0.00 in/hr0.0 mm/hr 1.30 in33.0 mm
01:15 PM 71.2°F21.8°C 65.8°F18.8°C 83% 5.0 mph SSE8.0 kmh SSE 13.0 mph20.9 kmh 29.79 in1008.8 mb 0.00 in0.0 mm 0.00 in/hr0.0 mm/hr 1.30 in33.0 mm
01:00 PM 70.2°F21.2°C 67.1°F19.5°C 90% 5.4 mph S8.7 kmh S 9.2 mph14.8 kmh 29.79 in1008.8 mb 0.00 in0.0 mm 0.00 in/hr0.0 mm/hr 1.30 in33.0 mm
12:45 PM 67.3°F19.6°C 64.0°F17.8°C 89% 4.1 mph SSE6.6 kmh SSE 6.9 mph11.1 kmh 29.78 in1008.5 mb 0.00 in0.0 mm 0.00 in/hr0.0 mm/hr 1.30 in33.0 mm
12:30 PM 72.3°F22.4°C 67.3°F19.6°C 84% 6.7 mph SE10.8 kmh SE 9.8 mph15.8 kmh 29.78 in1008.5 mb 0.00 in0.0 mm 0.00 in/hr0.0 mm/hr 1.30 in33.0 mm
12:15 PM 69.1°F20.6°C 63.7°F17.6°C 83% 5.5 mph S8.9 kmh S 7.6 mph12.2 kmh 29.78 in1008.5 mb 0.00 in0.0 mm 0.00 in/hr0.0 mm/hr 1.30 in33.0 mm
12:00 PM 73.9°F23.3°C 68.5°F20.3°C 83% 3.6 mph S5.8 kmh S 6.0 mph9.7 kmh 29.78 in1008.5 mb 0.00 in0.0 mm 0.00 in/hr0.0 mm/hr 1.30 in33.0 mm
11:45 AM 73.8°F23.2°C 67.2°F19.6°C 80% 3.4 mph SSW5.5 kmh SSW 4.5 mph7.2 kmh 29.79 in1008.8 mb 0.00 in0.0 mm 0.00 in/hr0.0 mm/hr 1.30 in33.0 mm
11:30 AM 74.7°F23.7°C 65.9°F18.8°C 74% 4.2 mph SSE6.8 kmh SSE 7.6 mph12.2 kmh 29.79 in1008.8 mb 0.00 in0.0 mm 0.00 in/hr0.0 mm/hr 1.30 in33.0 mm
11:15 AM 69.8°F21.0°C 64.4°F18.0°C 83% 2.4 mph SSE3.9 kmh SSE 3.8 mph6.1 kmh 29.79 in1008.8 mb 0.00 in0.0 mm 0.00 in/hr0.0 mm/hr 1.30 in33.0 mm
11:00 AM 66.9°F19.4°C 61.6°F16.4°C 83% 2.7 mph SSE4.3 kmh SSE 3.8 mph6.1 kmh 29.79 in1008.8 mb 0.00 in0.0 mm 0.00 in/hr0.0 mm/hr 1.30 in33.0 mm
10:45 AM 71.4°F21.9°C 66.4°F19.1°C 84% 2.7 mph SSE4.3 kmh SSE 3.8 mph6.1 kmh 29.79 in1008.8 mb 0.00 in0.0 mm 0.00 in/hr0.0 mm/hr 1.30 in33.0 mm
10:30 AM 72.3°F22.4°C 66.6°F19.2°C 82% 2.8 mph S4.5 kmh S 5.4 mph8.7 kmh 29.79 in1008.8 mb 0.00 in0.0 mm 0.00 in/hr0.0 mm/hr 1.30 in33.0 mm
10:15 AM 66.4°F19.1°C 61.8°F16.6°C 85% 2.0 mph SW3.2 kmh SW 3.8 mph6.1 kmh 29.79 in1008.8 mb 0.01 in0.3 mm 0.00 in/hr0.0 mm/hr 1.30 in33.0 mm
10:00 AM 73.9°F23.3°C 65.2°F18.4°C 74% 3.4 mph E5.5 kmh E 5.4 mph8.7 kmh 29.80 in1009.1 mb 0.01 in0.3 mm 0.00 in/hr0.0 mm/hr 1.30 in33.0 mm
09:45 AM 78.8°F26.0°C 71.8°F22.1°C 79% 3.7 mph SSE6.0 kmh SSE 5.4 mph8.7 kmh 29.79 in1008.8 mb 0.01 in0.3 mm 0.00 in/hr0.0 mm/hr 1.31 in33.3 mm
09:30 AM 73.6°F23.1°C 66.7°F19.3°C 79% 2.8 mph SSE4.5 kmh SSE 5.4 mph8.7 kmh 29.79 in1008.8 mb 0.01 in0.3 mm 0.04 in/hr1.0 mm/hr 1.31 in33.3 mm
09:15 AM 72.5°F22.5°C 64.9°F18.3°C 77% 2.9 mph S4.7 kmh S 5.4 mph8.7 kmh 29.79 in1008.8 mb 0.00 in0.0 mm 0.00 in/hr0.0 mm/hr 1.30 in33.0 mm
09:00 AM 76.8°F24.9°C 68.3°F20.2°C 75% 3.3 mph SE5.3 kmh SE 6.0 mph9.7 kmh 29.80 in1009.1 mb 0.00 in0.0 mm 0.00 in/hr0.0 mm/hr 1.30 in33.0 mm
08:45 AM 71.8°F22.1°C 64.9°F18.3°C 79% 2.2 mph SSE3.5 kmh SSE 3.8 mph6.1 kmh 29.79 in1008.8 mb 0.00 in0.0 mm 0.00 in/hr0.0 mm/hr 1.30 in33.0 mm
08:30 AM 68.5°F20.3°C 61.1°F16.2°C 77% 1.7 mph S2.7 kmh S 3.8 mph6.1 kmh 29.79 in1008.8 mb 0.00 in0.0 mm 0.00 in/hr0.0 mm/hr 1.30 in33.0 mm
08:15 AM 71.4°F21.9°C 66.0°F18.9°C 83% 2.4 mph S3.9 kmh S 3.8 mph6.1 kmh 29.78 in1008.5 mb 0.00 in0.0 mm 0.00 in/hr0.0 mm/hr 1.30 in33.0 mm
08:00 AM 75.7°F24.3°C 68.4°F20.2°C 78% 2.1 mph WNW3.4 kmh WNW 3.8 mph6.1 kmh 29.78 in1008.5 mb 0.00 in0.0 mm 0.00 in/hr0.0 mm/hr 1.30 in33.0 mm
07:45 AM 71.1°F21.7°C 65.3°F18.5°C 82% 1.3 mph W2.1 kmh W 2.2 mph3.5 kmh 29.78 in1008.5 mb 0.00 in0.0 mm 0.00 in/hr0.0 mm/hr 1.30 in33.0 mm
07:30 AM 66.9°F19.4°C 62.0°F16.7°C 84% 1.5 mph WSW2.4 kmh WSW 2.2 mph3.5 kmh 29.78 in1008.5 mb 0.00 in0.0 mm 0.00 in/hr0.0 mm/hr 1.30 in33.0 mm
07:15 AM 67.6°F19.8°C 64.3°F17.9°C 89% 1.7 mph WNW2.7 kmh WNW 2.2 mph3.5 kmh 29.77 in1008.1 mb 0.00 in0.0 mm 0.00 in/hr0.0 mm/hr 1.30 in33.0 mm
07:00 AM 64.8°F18.2°C 63.3°F17.4°C 95% 1.2 mph NW1.9 kmh NW 2.2 mph3.5 kmh 29.77 in1008.1 mb 0.00 in0.0 mm 0.00 in/hr0.0 mm/hr 1.30 in33.0 mm
06:45 AM 64.0°F17.8°C 64.1°F17.8°C 100% 0.7 mph WSW1.1 kmh WSW 2.2 mph3.5 kmh 29.77 in1008.1 mb 0.00 in0.0 mm 0.00 in/hr0.0 mm/hr 1.30 in33.0 mm
06:30 AM 63.9°F17.7°C 63.0°F17.2°C 97% 0.4 mph E0.6 kmh E 1.6 mph2.6 kmh 29.76 in1007.8 mb 0.00 in0.0 mm 0.00 in/hr0.0 mm/hr 1.30 in33.0 mm
06:15 AM 63.5°F17.5°C 63.5°F17.5°C 100% 1.7 mph NW2.7 kmh NW 3.8 mph6.1 kmh 29.76 in1007.8 mb 0.00 in0.0 mm 0.00 in/hr0.0 mm/hr 1.30 in33.0 mm
06:00 AM 63.1°F17.3°C 62.9°F17.2°C 99% 1.2 mph NNW1.9 kmh NNW 2.2 mph3.5 kmh 29.77 in1008.1 mb 0.00 in0.0 mm 0.00 in/hr0.0 mm/hr 1.30 in33.0 mm
05:45 AM 63.0°F17.2°C 62.7°F17.1°C 99% 1.3 mph E2.1 kmh E 2.2 mph3.5 kmh 29.76 in1007.8 mb 0.00 in0.0 mm 0.00 in/hr0.0 mm/hr 1.30 in33.0 mm
05:30 AM 63.3°F17.4°C 63.1°F17.3°C 99% 3.2 mph NW5.1 kmh NW 5.4 mph8.7 kmh 29.76 in1007.8 mb 0.00 in0.0 mm 0.00 in/hr0.0 mm/hr 1.30 in33.0 mm
05:15 AM 63.5°F17.5°C 63.2°F17.3°C 99% 0.3 mph NNE0.5 kmh NNE 2.2 mph3.5 kmh 29.76 in1007.8 mb 0.00 in0.0 mm 0.00 in/hr0.0 mm/hr 1.30 in33.0 mm
05:00 AM 63.5°F17.5°C 63.2°F17.3°C 99% 0.1 mph N0.2 kmh N 1.6 mph2.6 kmh 29.77 in1008.1 mb 0.00 in0.0 mm 0.00 in/hr0.0 mm/hr 1.30 in33.0 mm
04:45 AM 63.9°F17.7°C 63.9°F17.7°C 100% 1.6 mph NNW2.6 kmh NNW 2.2 mph3.5 kmh 29.76 in1007.8 mb 0.00 in0.0 mm 0.00 in/hr0.0 mm/hr 1.30 in33.0 mm
04:30 AM 64.2°F17.9°C 64.2°F17.9°C 100% 2.1 mph SW3.4 kmh SW 4.5 mph7.2 kmh 29.75 in1007.5 mb 0.00 in0.0 mm 0.00 in/hr0.0 mm/hr 1.30 in33.0 mm
04:15 AM 64.2°F17.9°C 64.0°F17.8°C 99% 4.4 mph W7.1 kmh W 7.6 mph12.2 kmh 29.76 in1007.8 mb 0.00 in0.0 mm 0.00 in/hr0.0 mm/hr 1.30 in33.0 mm
04:00 AM 63.3°F17.4°C 63.1°F17.3°C 99% 4.6 mph W7.4 kmh W 6.0 mph9.7 kmh 29.77 in1008.1 mb 0.00 in0.0 mm 0.00 in/hr0.0 mm/hr 1.30 in33.0 mm
03:45 AM 64.0°F17.8°C 63.8°F17.7°C 99% 8.4 mph NW13.5 kmh NW 12.1 mph19.5 kmh 29.76 in1007.8 mb 0.00 in0.0 mm 0.00 in/hr0.0 mm/hr 1.30 in33.0 mm
03:30 AM 65.5°F18.6°C 65.2°F18.4°C 99% 4.6 mph W7.4 kmh W 6.9 mph11.1 kmh 29.77 in1008.1 mb 0.45 in11.4 mm 0.00 in/hr0.0 mm/hr 1.30 in33.0 mm
03:15 AM 66.2°F19.0°C 65.9°F18.8°C 99% 5.6 mph SSW9.0 kmh SSW 9.2 mph14.8 kmh 29.75 in1007.5 mb 1.24 in31.5 mm 0.00 in/hr0.0 mm/hr 1.30 in33.0 mm
03:00 AM 66.9°F19.4°C 66.7°F19.3°C 99% 3.3 mph S5.3 kmh S 6.0 mph9.7 kmh 29.76 in1007.8 mb 1.30 in33.0 mm 0.00 in/hr0.0 mm/hr 1.30 in33.0 mm
02:45 AM 67.1°F19.5°C 66.8°F19.3°C 99% 2.6 mph SSW4.2 kmh SSW 5.4 mph8.7 kmh 29.76 in1007.8 mb 1.30 in33.0 mm 1.80 in/hr45.7 mm/hr 1.30 in33.0 mm
02:30 AM 67.6°F19.8°C 67.4°F19.7°C 99% 8.2 mph SSE13.2 kmh SSE 14.5 mph23.3 kmh 29.76 in1007.8 mb 0.85 in21.6 mm 3.16 in/hr80.3 mm/hr 0.85 in21.6 mm
02:15 AM 69.4°F20.8°C 69.2°F20.7°C 99% 4.5 mph SSE7.2 kmh SSE 9.2 mph14.8 kmh 29.76 in1007.8 mb 0.06 in1.5 mm 0.24 in/hr6.1 mm/hr 0.06 in1.5 mm
02:00 AM 69.6°F20.9°C 68.8°F20.4°C 97% 4.4 mph SE7.1 kmh SE 8.3 mph13.4 kmh 29.75 in1007.5 mb 0.00 in0.0 mm 0.00 in/hr0.0 mm/hr 0.00 in0.0 mm
01:45 AM 69.6°F20.9°C 68.5°F20.3°C 96% 6.4 mph W10.3 kmh W 9.8 mph15.8 kmh 29.75 in1007.5 mb 0.00 in0.0 mm 0.00 in/hr0.0 mm/hr 0.00 in0.0 mm
01:30 AM 69.4°F20.8°C 68.0°F20.0°C 95% 6.2 mph WSW10.0 kmh WSW 10.7 mph17.2 kmh 29.76 in1007.8 mb 0.00 in0.0 mm 0.00 in/hr0.0 mm/hr 0.00 in0.0 mm
01:15 AM 69.4°F20.8°C 67.4°F19.7°C 93% 4.4 mph E7.1 kmh E 7.6 mph12.2 kmh 29.77 in1008.1 mb 0.00 in0.0 mm 0.00 in/hr0.0 mm/hr 0.00 in0.0 mm
01:00 AM 69.4°F20.8°C 67.4°F19.7°C 93% 3.4 mph SW5.5 kmh SW 4.5 mph7.2 kmh 29.77 in1008.1 mb 0.00 in0.0 mm 0.00 in/hr0.0 mm/hr 0.00 in0.0 mm
12:45 AM 69.3°F20.7°C 66.9°F19.4°C 92% 3.0 mph SSE4.8 kmh SSE 6.0 mph9.7 kmh 29.80 in1009.1 mb 0.00 in0.0 mm 0.00 in/hr0.0 mm/hr 0.00 in0.0 mm
12:30 AM 69.3°F20.7°C 66.9°F19.4°C 92% 3.4 mph WSW5.5 kmh WSW 6.9 mph11.1 kmh 29.80 in1009.1 mb 0.00 in0.0 mm 0.00 in/hr0.0 mm/hr 0.00 in0.0 mm
12:15 AM 68.9°F20.5°C 66.5°F19.2°C 92% 2.9 mph SW4.7 kmh SW 5.4 mph8.7 kmh 29.80 in1009.1 mb 0.00 in0.0 mm 0.00 in/hr0.0 mm/hr 0.00 in0.0 mm
12:00 AM 68.9°F20.5°C 67.1°F19.5°C 94% 3.6 mph SE5.8 kmh SE 6.0 mph9.7 kmh 29.80 in1009.1 mb 0.00 in0.0 mm 0.00 in/hr0.0 mm/hr 0.00 in0.0 mm